Ginys del Meteocat

Dades de l'estació automàtica Oliana

?
?
Resum diari 22:00 TU
Dades diàries de l'estació meteorològica
Temperatura mitjana 6.6 °C
Temperatura màxima 11.1 °C 13:28 TU
Temperatura mínima 2.3 °C 20:58 TU
Humitat relativa mitjana 77%
Precipitació acumulada 0.0 mm
Ratxa màxima del vent (2 m) 31.7 km/h - 355º 3:53 TU
Irradiació solar global 9.2 MJ/m2

El tram horari està expressat en Temps Universal (TU). Cal sumar una hora en horari d'hivern i dues en horari d'estiu per passar a l'hora oficial.

Oliana

Metadades estació meteorol´gica
Municipi Oliana
Comarca Alt Urgell
Altitud 490 m
Data alta 22.06.2000
Estat actual Operativa
Dades de període
Període
TU
TM
°C
TX
°C
TN
°C
HRM
%
PPT
mm
VVM (2 m)
km/h
DVM (2 m)
graus
VVX (2 m)
km/h
RS
W/m2
00:00 - 00:30 6.1 6.2 6.0 84 0.0 5.4 28 20.2 0
00:30 - 01:00 6.3 6.4 6.2 82 0.0 6.8 23 20.2 0
01:00 - 01:30 6.4 6.5 6.3 82 0.0 5.8 40 21.2 0
01:30 - 02:00 6.4 6.5 6.3 81 0.0 5.8 31 18.7 0
02:00 - 02:30 6.5 6.6 6.5 80 0.0 4.7 31 15.8 0
02:30 - 03:00 6.5 6.6 6.4 79 0.0 5.0 34 16.9 0
03:00 - 03:30 6.3 6.4 6.1 79 0.0 6.1 20 20.5 0
03:30 - 04:00 5.8 6.1 5.6 81 0.0 11.2 6 31.7 0
04:00 - 04:30 5.6 5.8 5.5 81 0.0 7.2 26 27.4 0
04:30 - 05:00 5.6 5.8 5.1 81 0.0 4.7 92 14.8 0
05:00 - 05:30 5.5 5.7 5.2 80 0.0 4.3 65 19.8 0
05:30 - 06:00 5.4 5.4 5.3 80 0.0 4.3 61 16.9 0
06:00 - 06:30 5.3 5.5 5.1 80 0.0 5.0 4 19.8 0
06:30 - 07:00 5.0 5.2 4.7 81 0.0 5.4 36 20.5 0
07:00 - 07:30 4.8 4.9 4.6 82 0.0 5.4 11 16.9 4
07:30 - 08:00 4.8 4.9 4.7 81 0.0 5.8 44 22.7 34
08:00 - 08:30 4.9 5.3 4.6 80 0.0 4.0 69 13.3 88
08:30 - 09:00 5.7 5.9 5.3 77 0.0 4.3 32 17.3 163
09:00 - 09:30 6.2 6.5 5.8 74 0.0 5.0 18 24.5 244
09:30 - 10:00 6.8 6.9 6.5 72 0.0 6.1 25 18.7 318
10:00 - 10:30 7.3 7.7 6.9 70 0.0 5.4 18 18.7 376
10:30 - 11:00 7.8 8.2 7.6 67 0.0 7.2 4 22.0 427
11:00 - 11:30 8.3 8.6 8.0 66 0.0 7.2 0 18.0 461
11:30 - 12:00 9.1 9.6 8.6 63 0.0 6.1 359 18.7 483
12:00 - 12:30 9.4 9.6 9.1 63 0.0 7.6 1 22.0 471
12:30 - 13:00 10.0 10.4 9.4 61 0.0 6.8 354 23.0 486
13:00 - 13:30 10.7 11.1 10.4 58 0.0 5.0 344 16.6 435
13:30 - 14:00 10.6 11.0 10.2 59 0.0 2.9 330 10.4 252
14:00 - 14:30 9.8 10.7 9.3 65 0.0 3.6 292 10.4 237
14:30 - 15:00 10.3 10.6 9.9 66 0.0 4.3 279 9.7 306
15:00 - 15:30 10.7 11.0 9.8 62 0.0 2.5 351 9.0 188
15:30 - 16:00 9.7 9.9 9.0 68 0.0 2.9 266 7.2 142
16:00 - 16:30 8.4 8.9 7.6 73 0.0 2.5 170 5.4 44
16:30 - 17:00 7.0 7.7 6.2 79 0.0 1.8 148 3.6 9
17:00 - 17:30 5.6 6.3 5.0 85 0.0 2.9 140 5.8 0
17:30 - 18:00 5.2 6.0 4.7 85 0.0 1.8 93 5.0 0
18:00 - 18:30 4.8 5.3 4.4 87 0.0 2.9 151 5.8 0
18:30 - 19:00 4.5 4.9 4.3 87 0.0 2.5 118 5.4 0
19:00 - 19:30 4.6 4.8 4.1 86 0.0 1.4 77 6.8 0
19:30 - 20:00 4.0 4.2 3.8 89 0.0 3.6 135 6.5 0
20:00 - 20:30 4.0 4.4 3.4 88 0.0 3.2 132 7.2 0
20:30 - 21:00 3.3 3.9 2.3 91 0.0 3.6 141 7.2 0
21:00 - 21:30 3.9 5.1 2.4 88 0.0 3.6 109 11.5 0
21:30 - 22:00 5.2 5.5 5.0 80 0.0 3.2 84 11.2 0
22:00 - 22:30 5.0 5.1 4.8 81 0.0 5.0 125 17.3 0

Les dades en taronja només han passat un control de qualitat automàtic. Resta pendent la seva validació definitiva.